Rush Center, Kansas
Current Conditions -  °F | °C
As of 4:15 PM on Monday 20 Oct 2014 (Local Time) from KGBD Reporting Station
Clear Clear  
Wind Chill: 77°   Ceiling: Unl
Heat Index: 78°   Visibility: 10mi
Dew Point: 45°   Wind: 12mph
Humidity: 32%   Direction: 40°NE
Pressure: 30.05"   Gusts: NA
Location:  38.47°N, 99.31°W
Report Text: KGBD 202115Z AUTO 04010KT 10SM CLR 25/07 A3005 RMK AO1
Loading
Personal Weather Stations






























Interactive Weather Map
Tropical Storm Tracking
New forecast layout! Learn more

10-Day Weather Forecast

Advertisements
Track Severe Weather on mobile